Time;durP1;ratioP1;P1;durP2;ratioP2;P2;SDS_P1;SDS_P2;PMS_P1;PMS_P2;Temp;Humidity;BMP_temperature;BMP_pressure;BME280_temperature;BME280_humidity;BME280_pressure;Samples;Min_cycle;Max_cycle;Signal;HPM_P1;HPM_P2
2023/10/22 00:00:11;;;;;;;2.60;0.60;;;;;;;-148.15;100.00;61821.78;4971905;28;20093;-90
2023/10/22 00:02:37;;;;;;;1.75;0.73;;;;;;;-148.15;100.00;61821.78;4970344;28;20023;-89
2023/10/22 00:05:04;;;;;;;4.20;0.80;;;;;;;-148.15;100.00;61821.78;4972086;28;20033;-90
2023/10/22 00:07:30;;;;;;;3.53;0.60;;;;;;;-148.15;100.00;61821.78;4971941;28;20506;-90
2023/10/22 00:09:55;;;;;;;3.60;0.90;;;;;;;-148.15;100.00;61821.78;4971765;28;20281;-90
2023/10/22 00:12:20;;;;;;;1.83;0.60;;;;;;;-148.15;100.00;61821.78;4971186;28;20117;-90
2023/10/22 00:14:46;;;;;;;3.50;0.73;;;;;;;-148.15;100.00;61821.78;4971644;28;20038;-90
2023/10/22 00:17:11;;;;;;;2.47;0.70;;;;;;;-148.15;100.00;61821.78;4972441;28;20015;-91
2023/10/22 00:19:36;;;;;;;2.60;0.63;;;;;;;-148.15;100.00;61821.78;4971918;28;20054;-91
2023/10/22 00:22:02;;;;;;;2.53;0.60;;;;;;;-148.15;100.00;61821.78;4970256;28;20042;-90
2023/10/22 00:24:27;;;;;;;2.53;0.70;;;;;;;-148.15;100.00;61821.78;4971805;28;20035;-90
2023/10/22 00:26:52;;;;;;;4.00;0.80;;;;;;;-148.15;100.00;61821.78;4971382;28;20027;-90
2023/10/22 00:29:18;;;;;;;4.27;0.67;;;;;;;-148.15;100.00;61821.78;4969459;28;20540;-89
2023/10/22 00:31:43;;;;;;;2.60;0.60;;;;;;;-148.15;100.00;61821.78;4969710;28;20023;-90
2023/10/22 00:34:09;;;;;;;3.07;0.70;;;;;;;-148.15;100.00;61821.78;4971420;28;20426;-90
2023/10/22 00:36:34;;;;;;;1.27;0.60;;;;;;;-148.15;100.00;61821.78;4971422;28;20394;-90
2023/10/22 00:38:59;;;;;;;3.08;0.70;;;;;;;-148.15;100.00;61821.78;4972498;28;20058;-90
2023/10/22 00:41:25;;;;;;;2.20;0.73;;;;;;;-148.15;100.00;61821.78;4970291;28;20372;-90
2023/10/22 00:43:50;;;;;;;0.87;0.53;;;;;;;-148.15;100.00;61821.78;4969658;28;20034;-90
2023/10/22 00:46:22;;;;;;;2.60;0.80;;;;;;;-148.15;100.00;61821.78;4969814;28;20066;-90
2023/10/22 00:48:49;;;;;;;3.38;0.60;;;;;;;-148.15;100.00;61821.78;4970698;28;20068;-89
2023/10/22 00:51:15;;;;;;;2.00;0.60;;;;;;;-148.15;100.00;61821.78;4972116;28;20110;-91
2023/10/22 00:53:42;;;;;;;2.80;0.70;;;;;;;-148.15;100.00;61821.78;4970699;28;20461;-90
2023/10/22 00:56:09;;;;;;;3.33;0.88;;;;;;;-148.15;100.00;61821.78;4972640;28;20478;-90
2023/10/22 00:58:35;;;;;;;4.97;0.90;;;;;;;-148.15;100.00;61821.78;4953448;28;20498;-91
2023/10/22 01:01:03;;;;;;;2.83;0.90;;;;;;;-148.15;100.00;61821.78;4969745;28;20086;-90
2023/10/22 01:03:29;;;;;;;3.30;1.00;;;;;;;-148.15;100.00;61821.78;4950926;28;20034;-90
2023/10/22 01:05:54;;;;;;;4.25;0.75;;;;;;;-148.15;100.00;61821.78;4970190;28;20038;-90
2023/10/22 01:08:20;;;;;;;2.40;0.77;;;;;;;-148.15;100.00;61821.78;4968264;28;20375;-90
2023/10/22 01:10:45;;;;;;;2.37;0.60;;;;;;;-148.15;100.00;61821.78;4969845;28;20410;-91
2023/10/22 01:13:10;;;;;;;3.47;0.90;;;;;;;-148.15;100.00;61821.78;4971469;28;20066;-91
2023/10/22 01:15:36;;;;;;;1.83;0.70;;;;;;;-148.15;100.00;61821.78;4969390;28;20505;-89
2023/10/22 01:18:02;;;;;;;4.85;0.80;;;;;;;-148.15;100.00;61821.78;4971095;28;20066;-90
2023/10/22 01:20:27;;;;;;;2.75;0.50;;;;;;;-148.15;100.00;61821.78;4969889;28;20109;-91
2023/10/22 01:22:53;;;;;;;4.00;0.70;;;;;;;-148.15;100.00;61821.78;4971041;28;20518;-90
2023/10/22 01:25:18;;;;;;;6.90;0.83;;;;;;;-148.15;100.00;61821.78;4970092;28;20110;-90
2023/10/22 01:27:44;;;;;;;2.17;0.50;;;;;;;-148.15;100.00;61821.78;4969911;28;20038;-89
2023/10/22 01:30:10;;;;;;;2.42;0.57;;;;;;;-148.15;100.00;61821.78;4969967;28;20387;-90
2023/10/22 01:32:35;;;;;;;6.20;0.80;;;;;;;-148.15;100.00;61821.78;4970005;28;20088;-89
2023/10/22 01:35:01;;;;;;;1.40;0.75;;;;;;;-148.15;100.00;61821.78;4970692;28;20042;-90
2023/10/22 01:37:26;;;;;;;3.27;0.87;;;;;;;-148.15;100.00;61821.78;4969159;28;20055;-89
2023/10/22 01:39:52;;;;;;;2.90;0.90;;;;;;;-148.15;100.00;61821.78;4970151;28;20030;-90
2023/10/22 01:42:18;;;;;;;6.90;0.80;;;;;;;-148.15;100.00;61821.78;4969867;28;20110;-89
2023/10/22 01:44:43;;;;;;;3.72;0.90;;;;;;;-148.15;100.00;61821.78;4968792;28;20169;-89
2023/10/22 01:47:10;;;;;;;2.77;0.70;;;;;;;-148.15;100.00;61821.78;4970578;28;20037;-91
2023/10/22 01:49:36;;;;;;;3.03;0.80;;;;;;;-148.15;100.00;61821.78;4969219;28;20037;-90
2023/10/22 01:52:02;;;;;;;4.33;1.00;;;;;;;-148.15;100.00;61821.78;4970257;28;20026;-89
2023/10/22 01:54:27;;;;;;;2.90;0.80;;;;;;;-148.15;100.00;61821.78;4969267;28;20057;-89
2023/10/22 01:56:52;;;;;;;4.67;1.00;;;;;;;-148.15;100.00;61821.78;4967508;28;20485;-90
2023/10/22 01:59:17;;;;;;;3.70;0.70;;;;;;;-148.15;100.00;61821.78;4971321;28;20093;-87
2023/10/22 02:01:43;;;;;;;3.70;0.80;;;;;;;-148.15;100.00;61821.78;4953005;28;20474;-89
2023/10/22 02:04:08;;;;;;;2.50;0.87;;;;;;;-148.15;100.00;61821.78;4969619;28;20090;-89
2023/10/22 02:06:34;;;;;;;4.37;0.90;;;;;;;-148.15;100.00;61821.78;4968996;28;20425;-89
2023/10/22 02:09:00;;;;;;;4.67;0.80;;;;;;;-148.15;100.00;61821.78;4969855;28;20777;-87
2023/10/22 02:11:27;;;;;;;2.30;0.75;;;;;;;-148.15;100.00;61821.78;4970698;28;20035;-89
2023/10/22 02:13:52;;;;;;;4.87;0.73;;;;;;;-148.15;100.00;61821.78;4967076;28;20506;-90
2023/10/22 02:16:18;;;;;;;5.63;1.33;;;;;;;-148.15;100.00;61821.78;4968403;28;20294;-89
2023/10/22 02:18:44;;;;;;;5.35;0.80;;;;;;;-148.15;100.00;61821.78;4970704;28;20023;-89
2023/10/22 02:21:10;;;;;;;4.67;0.93;;;;;;;-148.15;100.00;61821.78;4969939;28;20027;-89
2023/10/22 02:23:35;;;;;;;3.13;0.88;;;;;;;-148.15;100.00;61821.78;4959608;28;20041;-89
2023/10/22 02:26:00;;;;;;;9.97;0.80;;;;;;;-148.15;100.00;61821.78;4970739;28;20057;-89
2023/10/22 02:28:26;;;;;;;4.57;1.00;;;;;;;-148.15;100.00;61821.78;4970204;28;20122;-89
2023/10/22 02:30:51;;;;;;;5.87;1.33;;;;;;;-148.15;100.00;61821.78;4965638;28;20030;-89
2023/10/22 02:33:17;;;;;;;4.83;1.03;;;;;;;-148.15;100.00;61821.78;4969161;28;20022;-89
2023/10/22 02:35:44;;;;;;;5.50;1.00;;;;;;;-148.15;100.00;61821.78;4972531;28;20093;-88
2023/10/22 02:38:15;;;;;;;6.40;1.20;;;;;;;-148.15;100.00;61821.78;4956474;28;20027;-88
2023/10/22 02:40:40;;;;;;;7.28;1.10;;;;;;;-148.15;100.00;61821.78;4972346;28;20042;-89
2023/10/22 02:43:06;;;;;;;2.93;0.87;;;;;;;-148.15;100.00;61821.78;4973565;28;20512;-91
2023/10/22 02:45:31;;;;;;;5.03;1.00;;;;;;;-148.15;100.00;61821.78;4972134;28;20027;-91
2023/10/22 02:47:58;;;;;;;3.88;1.05;;;;;;;-148.15;100.00;61821.78;4973868;28;20483;-91
2023/10/22 02:50:24;;;;;;;3.20;1.00;;;;;;;-148.15;100.00;61821.78;4973937;28;20098;-93
2023/10/22 02:52:50;;;;;;;2.93;1.00;;;;;;;-148.15;100.00;61821.78;4972923;28;20340;-90
2023/10/22 02:55:15;;;;;;;5.63;1.10;;;;;;;-148.15;100.00;61821.78;4972403;28;20023;-93
2023/10/22 02:57:40;;;;;;;4.63;1.10;;;;;;;-148.15;100.00;61821.78;4955641;28;20039;-91
2023/10/22 03:00:10;;;;;;;4.60;1.23;;;;;;;-148.15;100.00;61821.78;4954879;28;20029;-91
2023/10/22 03:02:38;;;;;;;2.47;1.10;;;;;;;-148.15;100.00;61821.78;4972388;28;20102;-90
2023/10/22 03:05:03;;;;;;;7.50;1.33;;;;;;;-148.15;100.00;61821.78;4970188;28;20091;-90
2023/10/22 03:07:29;;;;;;;4.18;1.20;;;;;;;-148.15;100.00;61821.78;4967927;28;20034;-94
2023/10/22 03:09:54;;;;;;;4.10;1.70;;;;;;;-148.15;100.00;61821.78;4972452;28;20058;-91
2023/10/22 03:12:20;;;;;;;7.17;1.53;;;;;;;-148.15;100.00;61821.78;4973772;28;20097;-92
2023/10/22 03:14:45;;;;;;;4.45;1.40;;;;;;;-148.15;100.00;61821.78;4971563;28;20038;-92
2023/10/22 03:17:12;;;;;;;5.03;1.40;;;;;;;-148.15;100.00;61821.78;4955695;28;20030;-94
2023/10/22 03:19:42;;;;;;;6.28;1.13;;;;;;;-148.15;100.00;61821.78;4952942;28;20034;-93
2023/10/22 03:22:08;;;;;;;8.70;1.83;;;;;;;-148.15;100.00;61821.78;4973507;28;20113;-92
2023/10/22 03:24:33;;;;;;;5.57;1.80;;;;;;;-148.15;100.00;61821.78;4977340;28;20384;-92
2023/10/22 03:26:59;;;;;;;5.33;1.57;;;;;;;-148.15;100.00;61821.78;4973521;28;20030;-91
2023/10/22 03:29:25;;;;;;;5.50;1.57;;;;;;;-148.15;100.00;61821.78;4973863;28;20034;-92
2023/10/22 03:31:50;;;;;;;3.97;1.90;;;;;;;-148.15;100.00;61821.78;4956092;28;20462;-91
2023/10/22 03:34:15;;;;;;;5.43;1.97;;;;;;;-148.15;100.00;61821.78;4974720;28;20023;-91
2023/10/22 03:36:41;;;;;;;4.53;2.60;;;;;;;-148.15;100.00;61821.78;4973110;28;20077;-89
2023/10/22 03:39:06;;;;;;;4.23;2.20;;;;;;;-148.15;100.00;61821.78;4970156;28;20405;-91
2023/10/22 03:41:33;;;;;;;7.40;2.40;;;;;;;-148.15;100.00;61821.78;4986915;28;20030;-90
2023/10/22 03:43:58;;;;;;;7.30;2.60;;;;;;;-148.15;100.00;61821.78;4982587;28;20031;-91
2023/10/22 03:46:24;;;;;;;5.73;2.63;;;;;;;-148.15;100.00;61821.78;4972250;28;20441;-91
2023/10/22 03:48:49;;;;;;;5.63;2.63;;;;;;;-148.15;100.00;61821.78;4955173;28;20334;-90
2023/10/22 03:51:14;;;;;;;8.87;3.20;;;;;;;-148.15;100.00;61821.78;4972897;28;20035;-90
2023/10/22 03:53:40;;;;;;;6.50;3.33;;;;;;;-148.15;100.00;61821.78;4971384;28;20026;-90
2023/10/22 03:56:05;;;;;;;7.10;3.90;;;;;;;-148.15;100.00;61821.78;4971274;28;20390;-90
2023/10/22 03:58:30;;;;;;;8.60;3.60;;;;;;;-148.15;100.00;61821.78;4966342;28;20142;-91
2023/10/22 04:00:56;;;;;;;11.73;4.10;;;;;;;-148.15;100.00;61821.78;4951730;28;20109;-90
2023/10/22 04:03:22;;;;;;;8.93;4.17;;;;;;;-148.15;100.00;61821.78;4954486;28;20298;-90
2023/10/22 04:05:53;;;;;;;9.25;4.10;;;;;;;-148.15;100.00;61821.78;4970985;28;20034;-91
2023/10/22 04:08:19;;;;;;;9.90;3.93;;;;;;;-148.15;100.00;61821.78;4965999;28;20479;-91
2023/10/22 04:10:45;;;;;;;8.83;4.57;;;;;;;-148.15;100.00;61821.78;4952952;28;20373;-91
2023/10/22 04:13:11;;;;;;;8.10;4.63;;;;;;;-148.15;100.00;61821.78;4963032;28;20030;-90
2023/10/22 04:15:38;;;;;;;7.80;4.13;;;;;;;-148.15;100.00;61821.78;4969100;28;20294;-90
2023/10/22 04:18:03;;;;;;;7.93;3.90;;;;;;;-148.15;100.00;61821.78;4969588;28;20098;-90
2023/10/22 04:20:34;;;;;;;9.23;3.97;;;;;;;-148.15;100.00;61821.78;4944743;29;20178;-92
2023/10/22 04:22:59;;;;;;;7.28;3.80;;;;;;;-148.15;100.00;61821.78;4966313;28;20040;-88
2023/10/22 04:25:26;;;;;;;7.37;3.77;;;;;;;-148.15;100.00;61821.78;4970929;28;20494;-91
2023/10/22 04:27:51;;;;;;;9.50;3.92;;;;;;;-148.15;100.00;61821.78;4957671;28;20467;-91
2023/10/22 04:30:17;;;;;;;7.30;3.90;;;;;;;-148.15;100.00;61821.78;4965673;28;20086;-91
2023/10/22 04:32:42;;;;;;;7.72;3.58;;;;;;;-148.15;100.00;61821.78;4969993;28;20446;-91
2023/10/22 04:35:08;;;;;;;5.50;3.27;;;;;;;-148.15;100.00;61821.78;4954763;28;20038;-91
2023/10/22 04:37:33;;;;;;;8.40;3.67;;;;;;;-148.15;100.00;61821.78;4969882;28;20035;-89
2023/10/22 04:39:58;;;;;;;7.57;3.53;;;;;;;-148.15;100.00;61821.78;4970895;28;20549;-89
2023/10/22 04:42:24;;;;;;;7.97;3.40;;;;;;;-148.15;100.00;61821.78;4970508;28;20069;-89
2023/10/22 04:44:50;;;;;;;12.83;3.60;;;;;;;-148.15;100.00;61821.78;4970496;28;20037;-89
2023/10/22 04:47:16;;;;;;;8.87;3.63;;;;;;;-148.15;100.00;61821.78;4971416;28;20369;-89
2023/10/22 04:49:44;;;;;;;6.43;3.72;;;;;;;-148.15;100.00;61821.78;4969878;28;20031;-90
2023/10/22 04:52:21;;;;;;;9.00;3.70;;;;;;;-148.15;100.00;61821.78;4967878;28;20061;-90
2023/10/22 04:54:46;;;;;;;9.10;3.40;;;;;;;-148.15;100.00;61821.78;4967132;28;20737;-90
2023/10/22 04:57:12;;;;;;;10.05;3.90;;;;;;;-148.15;100.00;61821.78;4969728;28;20057;-89
2023/10/22 04:59:37;;;;;;;9.90;3.50;;;;;;;-148.15;100.00;61821.78;4970605;28;20049;-89
2023/10/22 05:02:02;;;;;;;8.73;3.50;;;;;;;-148.15;100.00;61821.78;4969635;28;20034;-89
2023/10/22 05:04:28;;;;;;;8.67;4.03;;;;;;;-148.15;100.00;61821.78;4970877;28;20050;-88
2023/10/22 05:06:55;;;;;;;8.90;3.90;;;;;;;-148.15;100.00;61821.78;4970998;28;20054;-89
2023/10/22 05:09:20;;;;;;;7.68;3.88;;;;;;;-148.15;100.00;61821.78;4952238;28;20031;-89
2023/10/22 05:11:45;;;;;;;9.83;3.40;;;;;;;-148.15;100.00;61821.78;4971427;28;20415;-91
2023/10/22 05:14:10;;;;;;;4.87;3.43;;;;;;;-148.15;100.00;61821.78;4969702;28;20179;-90
2023/10/22 05:16:36;;;;;;;9.32;3.70;;;;;;;-148.15;100.00;61821.78;4970586;28;20042;-90
2023/10/22 05:19:01;;;;;;;6.87;3.90;;;;;;;-148.15;100.00;61821.78;4970332;28;20115;-90
2023/10/22 05:21:26;;;;;;;5.67;3.33;;;;;;;-148.15;100.00;61821.78;4970888;28;20065;-89
2023/10/22 05:23:52;;;;;;;5.77;3.20;;;;;;;-148.15;100.00;61821.78;4970030;28;20481;-89
2023/10/22 05:26:17;;;;;;;12.47;3.77;;;;;;;-148.15;100.00;61821.78;4970644;28;20398;-89
2023/10/22 05:28:43;;;;;;;7.90;3.53;;;;;;;-148.15;100.00;61821.78;4970126;28;20070;-88
2023/10/22 05:31:17;;;;;;;13.20;4.50;;;;;;;-148.15;100.00;61821.78;4971053;28;20386;-89
2023/10/22 05:33:42;;;;;;;8.63;3.53;;;;;;;-148.15;100.00;61821.78;4970796;28;20038;-89
2023/10/22 05:36:19;;;;;;;9.13;3.67;;;;;;;-148.15;100.00;61821.78;4970636;28;20027;-89
2023/10/22 05:38:45;;;;;;;5.70;3.08;;;;;;;-148.15;100.00;61821.78;4970469;28;20060;-89
2023/10/22 05:41:27;;;;;;;7.30;3.55;;;;;;;-148.15;100.00;61821.78;4970649;28;20443;-88
2023/10/22 05:44:00;;;;;;;7.47;3.60;;;;;;;-148.15;100.00;61821.78;4970049;28;20031;-89
2023/10/22 05:46:27;;;;;;;7.53;3.28;;;;;;;-148.15;100.00;61821.78;4970275;28;20030;-88
2023/10/22 05:48:52;;;;;;;9.20;3.47;;;;;;;-148.15;100.00;61821.78;4969434;28;20101;-89
2023/10/22 05:51:18;;;;;;;6.03;3.40;;;;;;;-148.15;100.00;61821.78;4970481;28;20030;-90
2023/10/22 05:53:44;;;;;;;10.13;3.03;;;;;;;-148.15;100.00;61821.78;4969736;28;20027;-89
2023/10/22 05:56:10;;;;;;;9.20;3.40;;;;;;;-148.15;100.00;61821.78;4969244;28;20038;-89
2023/10/22 05:58:35;;;;;;;6.20;3.37;;;;;;;-148.15;100.00;61821.78;4970277;28;20034;-90
2023/10/22 06:01:02;;;;;;;4.73;2.80;;;;;;;-148.15;100.00;61821.78;4970398;28;20023;-89
2023/10/22 06:03:28;;;;;;;7.63;3.03;;;;;;;-148.15;100.00;61821.78;4969828;28;20033;-89
2023/10/22 06:05:53;;;;;;;7.70;3.03;;;;;;;-148.15;100.00;61821.78;4970549;28;20397;-90
2023/10/22 06:08:18;;;;;;;8.70;4.60;;;;;;;-148.15;100.00;61821.78;4972860;28;20054;-91
2023/10/22 06:10:46;;;;;;;9.87;5.10;;;;;;;-148.15;100.00;61821.78;4972875;28;20030;-91
2023/10/22 06:13:11;;;;;;;9.50;5.90;;;;;;;-148.15;100.00;61821.78;4963174;28;20096;-90
2023/10/22 06:15:42;;;;;;;7.10;5.83;;;;;;;-148.15;100.00;61821.78;4957271;28;20034;-90
2023/10/22 06:18:07;;;;;;;7.32;5.32;;;;;;;-148.15;100.00;61821.78;4975138;28;20031;-89
2023/10/22 06:20:34;;;;;;;12.40;7.07;;;;;;;-148.15;100.00;61821.78;4971544;28;20162;-89
2023/10/22 06:23:00;;;;;;;7.78;6.10;;;;;;;-148.15;100.00;61821.78;4972897;28;20031;-90
2023/10/22 06:25:25;;;;;;;11.27;5.97;;;;;;;-148.15;100.00;61821.78;4973522;28;20034;-91
2023/10/22 06:27:55;;;;;;;8.97;5.20;;;;;;;-148.15;100.00;61821.78;4974626;28;20163;-92
2023/10/22 06:30:24;;;;;;;8.18;4.63;;;;;;;-148.15;100.00;61821.78;4972739;28;20029;-90
2023/10/22 06:32:50;;;;;;;6.85;3.85;;;;;;;-148.15;100.00;61821.78;4963114;28;20080;-91
2023/10/22 06:35:16;;;;;;;6.38;2.78;;;;;;;-148.15;100.00;61821.78;4969653;28;20029;-89
2023/10/22 06:37:41;;;;;;;5.77;2.60;;;;;;;-148.15;100.00;61821.78;4968827;28;20383;-89
2023/10/22 06:40:07;;;;;;;5.90;2.50;;;;;;;-148.15;100.00;61821.78;4970359;28;20129;-90
2023/10/22 06:42:33;;;;;;;5.18;2.70;;;;;;;-148.15;100.00;61821.78;4968685;28;20026;-90
2023/10/22 06:44:59;;;;;;;7.13;2.30;;;;;;;-148.15;100.00;61821.78;4973688;28;20035;-90
2023/10/22 06:47:25;;;;;;;7.00;2.40;;;;;;;-148.15;100.00;61821.78;4968827;28;20106;-89
2023/10/22 06:49:51;;;;;;;5.65;1.80;;;;;;;-148.15;100.00;61821.78;4957526;28;20065;-90
2023/10/22 06:52:16;;;;;;;4.67;2.00;;;;;;;-148.15;100.00;61821.78;4973365;28;20427;-90
2023/10/22 06:54:41;;;;;;;5.75;2.15;;;;;;;-148.15;100.00;61821.78;4966096;28;20035;-93
2023/10/22 06:57:07;;;;;;;6.07;1.93;;;;;;;-148.15;100.00;61821.78;4979895;28;20035;-96
2023/10/22 06:59:32;;;;;;;4.50;1.87;;;;;;;-148.15;100.00;61821.78;4980480;28;20422;-96
2023/10/22 07:02:10;;;;;;;5.17;1.93;;;;;;;-148.15;100.00;61821.78;4977977;28;20034;-94
2023/10/22 07:04:35;;;;;;;6.80;2.10;;;;;;;-148.15;100.00;61821.78;4980721;28;20050;-95
2023/10/22 07:07:00;;;;;;;5.57;2.00;;;;;;;-148.15;100.00;61821.78;4979375;28;20111;-95
2023/10/22 07:09:26;;;;;;;6.53;1.93;;;;;;;-148.15;100.00;61821.78;4974814;28;20402;-91
2023/10/22 07:11:51;;;;;;;8.55;1.48;;;;;;;-148.15;100.00;61821.78;4975409;28;20049;-96
2023/10/22 07:14:17;;;;;;;4.13;1.30;;;;;;;-148.15;100.00;61821.78;4976378;28;20714;-96
2023/10/22 07:16:43;;;;;;;4.60;2.00;;;;;;;-148.15;100.00;61821.78;4971347;28;20035;-90
2023/10/22 07:19:08;;;;;;;6.90;1.43;;;;;;;-148.15;100.00;61821.78;4974631;28;20293;-96
2023/10/22 07:21:34;;;;;;;2.63;1.00;;;;;;;-148.15;100.00;61821.78;4976670;28;20505;-95
2023/10/22 07:23:59;;;;;;;6.40;1.20;;;;;;;-148.15;100.00;61821.78;4975392;28;20031;-92
2023/10/22 07:26:26;;;;;;;3.30;1.20;;;;;;;-148.15;100.00;61821.78;4969296;28;20098;-95
2023/10/22 07:28:52;;;;;;;3.97;1.33;;;;;;;-148.15;100.00;61821.78;4960243;28;20381;-94
2023/10/22 07:31:17;;;;;;;5.22;1.60;;;;;;;-148.15;100.00;61821.78;4954727;28;20121;-91
2023/10/22 07:33:43;;;;;;;6.17;1.63;;;;;;;-148.15;100.00;61821.78;4979164;28;20039;-95
2023/10/22 07:36:08;;;;;;;6.10;1.60;;;;;;;-148.15;100.00;61821.78;4981041;28;20030;-95
2023/10/22 07:38:34;;;;;;;4.37;1.70;;;;;;;-148.15;100.00;61821.78;4990609;28;20027;-95
2023/10/22 07:41:00;;;;;;;5.30;1.13;;;;;;;-148.15;100.00;61821.78;4997308;28;20023;-96
2023/10/22 07:43:28;;;;;;;5.57;1.30;;;;;;;-148.15;100.00;61821.78;4995525;28;20035;-94
2023/10/22 07:46:01;;;;;;;3.17;1.50;;;;;;;-148.15;100.00;61821.78;4997994;28;20034;-94
2023/10/22 07:48:48;;;;;;;5.93;1.65;;;;;;;-148.15;100.00;61821.78;5000693;23;20034;-93
2023/10/22 07:54:40;;;;;;;7.23;1.27;;;;;;;-148.15;100.00;61821.78;4978839;28;20054;-93
2023/10/22 07:57:06;;;;;;;4.07;1.50;;;;;;;-148.15;100.00;61821.78;4972384;28;20031;-93
2023/10/22 07:59:31;;;;;;;4.20;1.50;;;;;;;-148.15;100.00;61821.78;4979990;23;20053;-95
2023/10/22 08:02:03;;;;;;;5.28;1.63;;;;;;;-148.15;100.00;61821.78;4981007;28;20055;-95
2023/10/22 08:04:31;;;;;;;5.50;1.80;;;;;;;-148.15;100.00;61821.78;4973233;28;20039;-94
2023/10/22 08:06:57;;;;;;;7.23;1.77;;;;;;;-148.15;100.00;61821.78;4972560;28;20283;-94
2023/10/22 08:09:22;;;;;;;6.33;1.53;;;;;;;-148.15;100.00;61821.78;4972817;28;20632;-94
2023/10/22 08:11:50;;;;;;;4.47;1.50;;;;;;;-148.15;100.00;61821.78;4969332;28;20405;-96
2023/10/22 08:14:18;;;;;;;6.67;1.60;;;;;;;-148.15;100.00;61821.78;4969831;28;20105;-96
2023/10/22 08:16:45;;;;;;;2.83;1.43;;;;;;;-148.15;100.00;61821.78;4977567;28;20377;-96
2023/10/22 08:19:11;;;;;;;8.73;1.58;;;;;;;-148.15;100.00;61821.78;4974277;28;20093;-95
2023/10/22 08:21:39;;;;;;;3.30;1.47;;;;;;;-148.15;100.00;61821.78;4979336;28;20015;-96
2023/10/22 08:40:08;;;;;;;5.20;1.30;;;;;;;-148.15;100.00;61821.78;5024465;23;20302;-94
2023/10/22 08:42:44;;;;;;;4.72;1.42;;;;;;;-148.15;100.00;61821.78;4976836;28;20027;-96
2023/10/22 08:52:38;;;;;;;4.45;1.38;;;;;;;-148.15;100.00;61821.78;5028759;28;20061;-96
2023/10/22 09:23:29;;;;;;;8.75;1.85;;;;;;;-148.15;100.00;61821.78;5288805;23;20053;-95
2023/10/22 09:31:10;;;;;;;6.55;2.50;;;;;;;-148.15;100.00;61821.78;5756007;23;20082;-95
2023/10/22 09:33:45;;;;;;;4.77;1.87;;;;;;;-148.15;100.00;61821.78;5002443;28;20030;-95
2023/10/22 09:36:25;;;;;;;2.80;1.85;;;;;;;-148.15;100.00;61821.78;5101554;23;20019;-96
2023/10/22 09:42:45;;;;;;;;;;;;;;;;;;;;;
2023/10/22 09:52:07;;;;;;;6.22;2.03;;;;;;;-148.15;100.00;61821.78;4998676;28;20037;-96
2023/10/22 09:54:37;;;;;;;5.80;2.23;;;;;;;-148.15;100.00;61821.78;4978752;28;20035;-91
2023/10/22 09:57:29;;;;;;;2.60;2.10;;;;;;;-148.15;100.00;61821.78;4996136;28;20286;-95
2023/10/22 10:00:12;;;;;;;3.83;2.35;;;;;;;-148.15;100.00;61821.78;4967076;28;20027;-96
2023/10/22 10:14:51;;;;;;;3.47;2.22;;;;;;;-148.15;100.00;61821.78;5093199;23;20049;-95
2023/10/22 10:17:54;;;;;;;5.40;2.30;;;;;;;-148.15;100.00;61821.78;4968385;28;20047;-96
2023/10/22 10:21:06;;;;;;;3.97;2.10;;;;;;;-148.15;100.00;61821.78;4979563;28;20050;-95
2023/10/22 10:24:12;;;;;;;9.35;2.70;;;;;;;-148.15;100.00;61821.78;4956376;28;20066;-96
2023/10/22 10:26:41;;;;;;;4.83;2.30;;;;;;;-148.15;100.00;61821.78;4956082;29;20032;-96
2023/10/22 10:29:15;;;;;;;6.70;2.22;;;;;;;-148.15;100.00;61821.78;4937250;29;20046;-95
2023/10/22 10:32:08;;;;;;;2.17;1.95;;;;;;;-148.15;100.00;61821.78;4939847;29;20044;-96
2023/10/22 10:34:36;;;;;;;6.38;2.30;;;;;;;-148.15;100.00;61821.78;4948780;29;20035;-95
2023/10/22 10:37:25;;;;;;;4.15;2.20;;;;;;;-148.15;100.00;61821.78;4931079;29;20044;-94
2023/10/22 10:39:52;;;;;;;6.53;2.40;;;;;;;-148.15;100.00;61821.78;4932759;29;20035;-95
2023/10/22 10:42:36;;;;;;;5.43;2.23;;;;;;;-148.15;100.00;61821.78;4947552;29;20362;-91
2023/10/22 10:45:05;;;;;;;5.43;2.20;;;;;;;-148.15;100.00;61821.78;4948059;29;20036;-89
2023/10/22 10:47:34;;;;;;;4.53;2.40;;;;;;;-148.15;100.00;61821.78;4951871;29;20020;-94
2023/10/22 10:53:36;;;;;;;;;;;;;;;;;;;;;
2023/10/22 10:56:46;;;;;;;;;;;;;;;;;;;;;
2023/10/22 11:02:48;;;;;;;;;;;;;;;;;;;;;
2023/10/22 11:05:25;;;;;;;;;;;;;;;;;;;;;
2023/10/22 11:10:33;;;;;;;4.67;2.17;;;;;;;-148.15;100.00;61821.78;5011859;28;20046;-96
2023/10/22 11:13:28;;;;;;;4.30;2.37;;;;;;;-148.15;100.00;61821.78;4999173;28;20292;-96
2023/10/22 11:16:31;;;;;;;5.93;2.45;;;;;;;-148.15;100.00;61821.78;5011540;28;20037;-95
2023/10/22 11:19:14;;;;;;;;;;;;;;;;;;;;;
2023/10/22 11:21:42;;;;;;;6.60;2.58;;;;;;;-148.15;100.00;61821.78;4999994;28;20030;-96
2023/10/22 11:31:55;;;;;;;4.30;1.90;;;;;;;-148.15;100.00;61821.78;5017575;28;20034;-96
2023/10/22 11:37:49;;;;;;;8.07;2.42;;;;;;;-148.15;100.00;61821.78;5034733;28;20038;-96
2023/10/22 11:43:26;;;;;;;4.97;2.30;;;;;;;-148.15;100.00;61821.78;4980383;28;20019;-96
2023/10/22 11:46:00;;;;;;;5.30;2.88;;;;;;;-148.15;100.00;61821.78;5002206;28;20122;-96
2023/10/22 11:48:29;;;;;;;5.43;2.72;;;;;;;-148.15;100.00;61821.78;5008061;28;20109;-94
2023/10/22 11:51:06;;;;;;;5.70;2.92;;;;;;;-148.15;100.00;61821.78;5008092;28;20027;-94
2023/10/22 11:53:42;;;;;;;5.67;3.30;;;;;;;-148.15;100.00;61821.78;5006693;28;20122;-92
2023/10/22 11:56:07;;;;;;;4.80;2.80;;;;;;;-148.15;100.00;61821.78;5011535;28;20312;-93
2023/10/22 11:58:32;;;;;;;4.55;3.35;;;;;;;-148.15;100.00;61821.78;5023581;28;20389;-92
2023/10/22 12:00:59;;;;;;;6.70;4.00;;;;;;;-148.15;100.00;61821.78;4994004;28;20030;-94
2023/10/22 12:03:24;;;;;;;4.60;4.20;;;;;;;-148.15;100.00;61821.78;5002075;28;20026;-91
2023/10/22 12:05:49;;;;;;;9.43;4.40;;;;;;;-148.15;100.00;61821.78;4999252;28;20030;-96
2023/10/22 12:08:15;;;;;;;4.57;4.10;;;;;;;-148.15;100.00;61821.78;5000337;28;20018;-94
2023/10/22 12:10:41;;;;;;;5.50;4.37;;;;;;;-148.15;100.00;61821.78;4996929;28;20508;-93
2023/10/22 12:13:06;;;;;;;5.15;4.57;;;;;;;-148.15;100.00;61821.78;5020954;28;20018;-92
2023/10/22 12:15:33;;;;;;;6.80;5.23;;;;;;;-148.15;100.00;61821.78;5009081;28;20042;-92
2023/10/22 12:17:59;;;;;;;5.70;5.10;;;;;;;-148.15;100.00;61821.78;4987065;28;20293;-93
2023/10/22 12:20:25;;;;;;;5.95;4.93;;;;;;;-148.15;100.00;61821.78;5005154;28;20037;-94
2023/10/22 12:22:51;;;;;;;6.75;4.60;;;;;;;-148.15;100.00;61821.78;4991058;28;20070;-96
2023/10/22 12:25:17;;;;;;;6.50;5.13;;;;;;;-148.15;100.00;61821.78;4998830;28;20018;-95
2023/10/22 12:27:42;;;;;;;7.18;5.05;;;;;;;-148.15;100.00;61821.78;5005297;28;20022;-92
2023/10/22 12:30:08;;;;;;;6.67;5.00;;;;;;;-148.15;100.00;61821.78;5007757;28;20026;-93
2023/10/22 12:32:33;;;;;;;9.55;5.22;;;;;;;-148.15;100.00;61821.78;5017562;28;20022;-94
2023/10/22 12:34:59;;;;;;;7.20;5.83;;;;;;;-148.15;100.00;61821.78;5010402;28;20053;-93
2023/10/22 12:37:25;;;;;;;8.50;5.70;;;;;;;-148.15;100.00;61821.78;5003046;28;20029;-93
2023/10/22 12:39:51;;;;;;;6.45;4.95;;;;;;;-148.15;100.00;61821.78;5004113;28;20041;-95
2023/10/22 12:42:19;;;;;;;8.27;4.80;;;;;;;-148.15;100.00;61821.78;5014602;28;20034;-92
2023/10/22 12:44:45;;;;;;;5.45;4.20;;;;;;;-148.15;100.00;61821.78;5014942;28;20022;-93
2023/10/22 12:47:16;;;;;;;7.95;4.40;;;;;;;-148.15;100.00;61821.78;5018674;28;20026;-92
2023/10/22 12:49:42;;;;;;;6.85;3.80;;;;;;;-148.15;100.00;61821.78;5015379;28;20042;-95
2023/10/22 12:52:11;;;;;;;4.65;3.28;;;;;;;-148.15;100.00;61821.78;5003286;28;20047;-96
2023/10/22 12:54:39;;;;;;;3.83;3.27;;;;;;;-148.15;100.00;61821.78;5001667;28;20065;-96
2023/10/22 12:57:07;;;;;;;6.00;2.83;;;;;;;-148.15;100.00;61821.78;4993508;28;20266;-96
2023/10/22 12:59:34;;;;;;;5.40;2.63;;;;;;;-148.15;100.00;61821.78;5009360;28;20031;-96
2023/10/22 13:02:00;;;;;;;5.05;2.22;;;;;;;-148.15;100.00;61821.78;5013400;28;20049;-95
2023/10/22 13:04:26;;;;;;;4.13;2.45;;;;;;;-148.15;100.00;61821.78;4997834;28;20042;-96
2023/10/22 13:07:10;;;;;;;2.83;2.57;;;;;;;-148.15;100.00;61821.78;5181119;23;20050;-95